上海/浦東 の空港の天気 - METARとTAF

上海浦東国際空港 ( ZSPD / PVG ) - 中国 上海市
飛行場実況気象(Metar)
観測時間12/09 22:30 CST (12/09 14:30 UTC)
風向・風速西 2m/s
視程10km以上
天気現象
全天の8割程度の雲 雲底高度 1010m
気温13℃
湿度94%
気圧1020hPa
METARZSPD 091430Z 28002MPS 9999 BKN033 13/12 Q1020 NOSIG
過去の天気等 Google飛行場航空写真 Wunderground天気予報

過去48時間のMETAR

飛行場予報(TAF)
発表時間: 12/09 17:06 CST (12/09 09:06 UTC)
予報対象時間: 9日20時 CST ~ 10日20時 CST
風向・風速北東 4m/s
視程5000m
天気現象もや
全天の8割程度の雲 雲底高度 210m
9日21時 CST ~ 10日3時 CST に一時的に
視程1000m
全天の8割程度の雲 雲底高度 120m
10日8時 CST ~ 10日9時 CST に徐々に
風向・風速北北西 5m/s
全天の8割程度の雲 雲底高度 300m
10日12時 CST ~ 10日13時 CST に徐々に
全天の8割程度の雲 雲底高度 460m
TAF ZSPD 090906Z 0912/1012 05004MPS 5000 BR BKN007 TX15/1006Z TN10/0921Z
TEMPO 0913/0919 1000 BKN004
BECMG 1000/1001 33005MPS BKN010
BECMG 1004/1005 BKN015